sensor_id;sensor_type;location;lat;lon;timestamp;P1;durP1;ratioP1;P2;durP2;ratioP2
72926;SDS011;61071;51.618;19.388;2023-05-21T00:01:18;10.70;;;7.05;;
72926;SDS011;61071;51.618;19.388;2023-05-21T00:03:43;11.93;;;7.10;;
72926;SDS011;61071;51.618;19.388;2023-05-21T00:06:13;10.60;;;7.60;;
72926;SDS011;61071;51.618;19.388;2023-05-21T00:08:39;9.23;;;6.93;;
72926;SDS011;61071;51.618;19.388;2023-05-21T00:11:05;15.20;;;7.80;;
72926;SDS011;61071;51.618;19.388;2023-05-21T00:13:31;13.20;;;7.82;;
72926;SDS011;61071;51.618;19.388;2023-05-21T00:15:56;9.05;;;6.88;;
72926;SDS011;61071;51.618;19.388;2023-05-21T00:18:21;11.77;;;7.65;;
72926;SDS011;61071;51.618;19.388;2023-05-21T00:20:49;7.43;;;6.60;;
72926;SDS011;61071;51.618;19.388;2023-05-21T00:23:14;13.27;;;6.88;;
72926;SDS011;61071;51.618;19.388;2023-05-21T00:25:42;8.73;;;6.07;;
72926;SDS011;61071;51.618;19.388;2023-05-21T00:28:08;8.43;;;6.03;;
72926;SDS011;61071;51.618;19.388;2023-05-21T00:30:34;9.73;;;6.80;;
72926;SDS011;61071;51.618;19.388;2023-05-21T00:32:59;8.60;;;6.53;;
72926;SDS011;61071;51.618;19.388;2023-05-21T00:35:26;10.07;;;6.18;;
72926;SDS011;61071;51.618;19.388;2023-05-21T00:37:53;11.27;;;5.85;;
72926;SDS011;61071;51.618;19.388;2023-05-21T00:40:18;9.35;;;5.47;;
72926;SDS011;61071;51.618;19.388;2023-05-21T00:42:44;5.65;;;5.05;;
72926;SDS011;61071;51.618;19.388;2023-05-21T00:45:11;10.35;;;6.07;;
72926;SDS011;61071;51.618;19.388;2023-05-21T00:47:41;8.98;;;6.28;;
72926;SDS011;61071;51.618;19.388;2023-05-21T00:50:07;7.50;;;5.05;;
72926;SDS011;61071;51.618;19.388;2023-05-21T00:52:35;7.65;;;5.90;;
72926;SDS011;61071;51.618;19.388;2023-05-21T00:55:05;6.75;;;5.15;;
72926;SDS011;61071;51.618;19.388;2023-05-21T00:57:32;9.38;;;5.32;;
72926;SDS011;61071;51.618;19.388;2023-05-21T01:00:01;11.55;;;5.28;;
72926;SDS011;61071;51.618;19.388;2023-05-21T01:02:29;7.68;;;5.38;;
72926;SDS011;61071;51.618;19.388;2023-05-21T01:04:58;9.48;;;5.20;;
72926;SDS011;61071;51.618;19.388;2023-05-21T01:07:24;10.35;;;5.75;;
72926;SDS011;61071;51.618;19.388;2023-05-21T01:09:50;11.07;;;6.28;;
72926;SDS011;61071;51.618;19.388;2023-05-21T01:12:16;9.30;;;5.47;;
72926;SDS011;61071;51.618;19.388;2023-05-21T01:14:43;8.60;;;5.72;;
72926;SDS011;61071;51.618;19.388;2023-05-21T01:17:09;9.38;;;6.00;;
72926;SDS011;61071;51.618;19.388;2023-05-21T01:19:35;10.23;;;6.10;;
72926;SDS011;61071;51.618;19.388;2023-05-21T01:22:04;9.63;;;6.15;;
72926;SDS011;61071;51.618;19.388;2023-05-21T01:24:32;7.35;;;5.85;;
72926;SDS011;61071;51.618;19.388;2023-05-21T01:26:59;9.32;;;6.00;;
72926;SDS011;61071;51.618;19.388;2023-05-21T01:29:30;7.18;;;5.95;;
72926;SDS011;61071;51.618;19.388;2023-05-21T01:32:21;9.65;;;6.55;;
72926;SDS011;61071;51.618;19.388;2023-05-21T01:34:59;10.70;;;6.05;;
72926;SDS011;61071;51.618;19.388;2023-05-21T01:37:30;7.72;;;6.20;;
72926;SDS011;61071;51.618;19.388;2023-05-21T01:40:07;10.43;;;6.07;;
72926;SDS011;61071;51.618;19.388;2023-05-21T01:42:42;9.10;;;5.20;;
72926;SDS011;61071;51.618;19.388;2023-05-21T01:45:09;10.88;;;6.28;;
72926;SDS011;61071;51.618;19.388;2023-05-21T01:47:37;7.38;;;5.90;;
72926;SDS011;61071;51.618;19.388;2023-05-21T01:50:04;7.25;;;5.80;;
72926;SDS011;61071;51.618;19.388;2023-05-21T01:52:30;9.43;;;6.30;;
72926;SDS011;61071;51.618;19.388;2023-05-21T01:54:56;8.48;;;5.90;;
72926;SDS011;61071;51.618;19.388;2023-05-21T01:57:22;6.57;;;5.65;;
72926;SDS011;61071;51.618;19.388;2023-05-21T01:59:47;10.38;;;5.82;;
72926;SDS011;61071;51.618;19.388;2023-05-21T02:02:13;7.47;;;5.47;;
72926;SDS011;61071;51.618;19.388;2023-05-21T02:04:38;9.55;;;5.78;;
72926;SDS011;61071;51.618;19.388;2023-05-21T02:07:05;7.75;;;5.35;;
72926;SDS011;61071;51.618;19.388;2023-05-21T02:09:31;10.60;;;6.13;;
72926;SDS011;61071;51.618;19.388;2023-05-21T02:11:56;9.80;;;5.68;;
72926;SDS011;61071;51.618;19.388;2023-05-21T02:14:22;7.65;;;5.47;;
72926;SDS011;61071;51.618;19.388;2023-05-21T02:16:49;6.18;;;5.10;;
72926;SDS011;61071;51.618;19.388;2023-05-21T02:19:16;7.82;;;5.28;;
72926;SDS011;61071;51.618;19.388;2023-05-21T02:21:42;9.85;;;5.30;;
72926;SDS011;61071;51.618;19.388;2023-05-21T02:24:07;8.05;;;4.82;;
72926;SDS011;61071;51.618;19.388;2023-05-21T02:26:33;7.25;;;5.05;;
72926;SDS011;61071;51.618;19.388;2023-05-21T02:28:58;9.50;;;5.13;;
72926;SDS011;61071;51.618;19.388;2023-05-21T02:31:24;7.43;;;5.30;;
72926;SDS011;61071;51.618;19.388;2023-05-21T02:33:49;5.80;;;4.70;;
72926;SDS011;61071;51.618;19.388;2023-05-21T02:36:15;8.00;;;5.00;;
72926;SDS011;61071;51.618;19.388;2023-05-21T02:38:43;8.45;;;5.20;;
72926;SDS011;61071;51.618;19.388;2023-05-21T02:41:09;8.82;;;4.53;;
72926;SDS011;61071;51.618;19.388;2023-05-21T02:43:36;11.43;;;5.05;;
72926;SDS011;61071;51.618;19.388;2023-05-21T02:46:01;6.65;;;4.60;;
72926;SDS011;61071;51.618;19.388;2023-05-21T02:48:27;5.82;;;4.18;;
72926;SDS011;61071;51.618;19.388;2023-05-21T02:50:52;7.70;;;4.88;;
72926;SDS011;61071;51.618;19.388;2023-05-21T02:53:18;6.72;;;4.60;;
72926;SDS011;61071;51.618;19.388;2023-05-21T02:55:43;7.32;;;4.78;;
72926;SDS011;61071;51.618;19.388;2023-05-21T02:58:09;5.60;;;4.40;;
72926;SDS011;61071;51.618;19.388;2023-05-21T03:00:37;7.90;;;4.57;;
72926;SDS011;61071;51.618;19.388;2023-05-21T03:03:02;7.07;;;4.68;;
72926;SDS011;61071;51.618;19.388;2023-05-21T03:05:28;7.95;;;4.00;;
72926;SDS011;61071;51.618;19.388;2023-05-21T03:07:54;8.27;;;4.95;;
72926;SDS011;61071;51.618;19.388;2023-05-21T03:10:19;7.97;;;4.10;;
72926;SDS011;61071;51.618;19.388;2023-05-21T03:12:46;9.75;;;4.65;;
72926;SDS011;61071;51.618;19.388;2023-05-21T03:15:11;5.18;;;4.07;;
72926;SDS011;61071;51.618;19.388;2023-05-21T03:17:40;9.57;;;4.07;;
72926;SDS011;61071;51.618;19.388;2023-05-21T03:20:08;5.55;;;4.00;;
72926;SDS011;61071;51.618;19.388;2023-05-21T03:22:40;7.45;;;3.80;;
72926;SDS011;61071;51.618;19.388;2023-05-21T03:25:07;5.53;;;3.53;;
72926;SDS011;61071;51.618;19.388;2023-05-21T03:27:34;6.28;;;3.92;;
72926;SDS011;61071;51.618;19.388;2023-05-21T03:29:59;6.60;;;3.95;;
72926;SDS011;61071;51.618;19.388;2023-05-21T03:32:25;11.10;;;4.15;;
72926;SDS011;61071;51.618;19.388;2023-05-21T03:34:50;5.80;;;3.67;;
72926;SDS011;61071;51.618;19.388;2023-05-21T03:37:15;7.63;;;3.67;;
72926;SDS011;61071;51.618;19.388;2023-05-21T03:39:41;6.65;;;3.80;;
72926;SDS011;61071;51.618;19.388;2023-05-21T03:42:06;7.40;;;4.00;;
72926;SDS011;61071;51.618;19.388;2023-05-21T03:44:31;8.70;;;4.40;;
72926;SDS011;61071;51.618;19.388;2023-05-21T03:46:57;3.90;;;3.50;;
72926;SDS011;61071;51.618;19.388;2023-05-21T03:49:23;4.90;;;3.72;;
72926;SDS011;61071;51.618;19.388;2023-05-21T03:51:49;4.35;;;2.92;;
72926;SDS011;61071;51.618;19.388;2023-05-21T03:54:15;4.78;;;3.33;;
72926;SDS011;61071;51.618;19.388;2023-05-21T03:56:40;5.60;;;3.30;;
72926;SDS011;61071;51.618;19.388;2023-05-21T03:59:06;4.35;;;3.15;;
72926;SDS011;61071;51.618;19.388;2023-05-21T04:01:31;7.90;;;3.20;;
72926;SDS011;61071;51.618;19.388;2023-05-21T04:03:57;9.95;;;3.80;;
72926;SDS011;61071;51.618;19.388;2023-05-21T04:06:22;6.15;;;3.22;;
72926;SDS011;61071;51.618;19.388;2023-05-21T04:08:48;4.90;;;3.60;;
72926;SDS011;61071;51.618;19.388;2023-05-21T04:11:14;9.10;;;3.92;;
72926;SDS011;61071;51.618;19.388;2023-05-21T04:13:39;8.23;;;3.53;;
72926;SDS011;61071;51.618;19.388;2023-05-21T04:16:05;6.60;;;3.28;;
72926;SDS011;61071;51.618;19.388;2023-05-21T04:18:32;4.88;;;3.13;;
72926;SDS011;61071;51.618;19.388;2023-05-21T04:20:58;6.05;;;3.42;;
72926;SDS011;61071;51.618;19.388;2023-05-21T04:23:24;9.30;;;3.40;;
72926;SDS011;61071;51.618;19.388;2023-05-21T04:25:50;9.73;;;3.15;;
72926;SDS011;61071;51.618;19.388;2023-05-21T04:28:15;9.63;;;3.42;;
72926;SDS011;61071;51.618;19.388;2023-05-21T04:30:44;3.75;;;3.17;;
72926;SDS011;61071;51.618;19.388;2023-05-21T04:33:12;6.25;;;3.22;;
72926;SDS011;61071;51.618;19.388;2023-05-21T04:35:41;3.33;;;2.90;;
72926;SDS011;61071;51.618;19.388;2023-05-21T04:38:13;6.03;;;3.30;;
72926;SDS011;61071;51.618;19.388;2023-05-21T04:40:44;5.43;;;3.00;;
72926;SDS011;61071;51.618;19.388;2023-05-21T04:43:11;5.57;;;3.38;;
72926;SDS011;61071;51.618;19.388;2023-05-21T04:45:37;5.95;;;3.22;;
72926;SDS011;61071;51.618;19.388;2023-05-21T04:48:02;4.18;;;2.55;;
72926;SDS011;61071;51.618;19.388;2023-05-21T04:50:28;10.07;;;2.90;;
72926;SDS011;61071;51.618;19.388;2023-05-21T04:52:57;5.00;;;2.47;;
72926;SDS011;61071;51.618;19.388;2023-05-21T04:55:23;3.20;;;2.78;;
72926;SDS011;61071;51.618;19.388;2023-05-21T04:57:48;7.30;;;2.90;;
72926;SDS011;61071;51.618;19.388;2023-05-21T05:00:13;5.63;;;2.95;;
72926;SDS011;61071;51.618;19.388;2023-05-21T05:02:40;6.68;;;3.10;;
72926;SDS011;61071;51.618;19.388;2023-05-21T05:05:05;15.50;;;2.70;;
72926;SDS011;61071;51.618;19.388;2023-05-21T05:07:31;7.13;;;3.05;;
72926;SDS011;61071;51.618;19.388;2023-05-21T05:09:56;10.68;;;2.60;;
72926;SDS011;61071;51.618;19.388;2023-05-21T05:12:22;11.30;;;2.53;;
72926;SDS011;61071;51.618;19.388;2023-05-21T05:14:47;3.80;;;2.65;;
72926;SDS011;61071;51.618;19.388;2023-05-21T05:17:12;6.75;;;2.90;;
72926;SDS011;61071;51.618;19.388;2023-05-21T05:19:40;7.78;;;2.72;;
72926;SDS011;61071;51.618;19.388;2023-05-21T05:22:06;4.95;;;2.78;;
72926;SDS011;61071;51.618;19.388;2023-05-21T05:24:31;3.78;;;2.35;;
72926;SDS011;61071;51.618;19.388;2023-05-21T05:26:57;4.60;;;2.67;;
72926;SDS011;61071;51.618;19.388;2023-05-21T05:29:22;6.88;;;2.80;;
72926;SDS011;61071;51.618;19.388;2023-05-21T05:31:48;3.95;;;2.50;;
72926;SDS011;61071;51.618;19.388;2023-05-21T05:34:13;4.38;;;2.45;;
72926;SDS011;61071;51.618;19.388;2023-05-21T05:36:39;4.82;;;2.10;;
72926;SDS011;61071;51.618;19.388;2023-05-21T05:39:04;3.92;;;2.53;;
72926;SDS011;61071;51.618;19.388;2023-05-21T05:41:30;7.60;;;2.50;;
72926;SDS011;61071;51.618;19.388;2023-05-21T05:43:55;7.75;;;2.75;;
72926;SDS011;61071;51.618;19.388;2023-05-21T05:46:20;3.50;;;2.38;;
72926;SDS011;61071;51.618;19.388;2023-05-21T05:48:46;4.93;;;2.40;;
72926;SDS011;61071;51.618;19.388;2023-05-21T05:51:11;5.90;;;2.38;;
72926;SDS011;61071;51.618;19.388;2023-05-21T05:53:37;2.42;;;2.05;;
72926;SDS011;61071;51.618;19.388;2023-05-21T05:56:02;4.65;;;2.20;;
72926;SDS011;61071;51.618;19.388;2023-05-21T05:58:28;3.65;;;2.30;;
72926;SDS011;61071;51.618;19.388;2023-05-21T06:00:54;6.72;;;2.47;;
72926;SDS011;61071;51.618;19.388;2023-05-21T06:03:20;2.90;;;1.88;;
72926;SDS011;61071;51.618;19.388;2023-05-21T06:05:45;2.95;;;2.08;;
72926;SDS011;61071;51.618;19.388;2023-05-21T06:08:11;7.00;;;2.28;;
72926;SDS011;61071;51.618;19.388;2023-05-21T06:10:36;4.10;;;2.30;;
72926;SDS011;61071;51.618;19.388;2023-05-21T06:13:02;2.97;;;2.13;;
72926;SDS011;61071;51.618;19.388;2023-05-21T06:15:27;6.20;;;2.25;;
72926;SDS011;61071;51.618;19.388;2023-05-21T06:17:54;4.28;;;2.20;;
72926;SDS011;61071;51.618;19.388;2023-05-21T06:20:20;4.22;;;2.08;;
72926;SDS011;61071;51.618;19.388;2023-05-21T06:22:45;2.95;;;1.90;;
72926;SDS011;61071;51.618;19.388;2023-05-21T06:25:10;4.88;;;2.35;;
72926;SDS011;61071;51.618;19.388;2023-05-21T06:27:36;4.50;;;2.40;;
72926;SDS011;61071;51.618;19.388;2023-05-21T06:30:02;7.50;;;2.40;;
72926;SDS011;61071;51.618;19.388;2023-05-21T06:32:28;11.98;;;2.45;;
72926;SDS011;61071;51.618;19.388;2023-05-21T06:34:54;3.88;;;2.03;;
72926;SDS011;61071;51.618;19.388;2023-05-21T06:37:19;5.45;;;2.47;;
72926;SDS011;61071;51.618;19.388;2023-05-21T06:39:45;3.60;;;2.15;;
72926;SDS011;61071;51.618;19.388;2023-05-21T06:42:11;6.90;;;2.30;;
72926;SDS011;61071;51.618;19.388;2023-05-21T06:44:36;6.57;;;2.38;;
72926;SDS011;61071;51.618;19.388;2023-05-21T06:47:02;4.28;;;1.85;;
72926;SDS011;61071;51.618;19.388;2023-05-21T06:49:27;5.88;;;2.17;;
72926;SDS011;61071;51.618;19.388;2023-05-21T06:51:53;3.13;;;1.75;;
72926;SDS011;61071;51.618;19.388;2023-05-21T06:54:18;4.57;;;2.40;;
72926;SDS011;61071;51.618;19.388;2023-05-21T06:56:43;3.90;;;2.15;;
72926;SDS011;61071;51.618;19.388;2023-05-21T06:59:09;6.95;;;2.35;;
72926;SDS011;61071;51.618;19.388;2023-05-21T07:01:34;6.03;;;2.70;;
72926;SDS011;61071;51.618;19.388;2023-05-21T07:04:00;4.15;;;1.90;;
72926;SDS011;61071;51.618;19.388;2023-05-21T07:06:25;4.03;;;2.50;;
72926;SDS011;61071;51.618;19.388;2023-05-21T07:08:51;3.03;;;1.92;;
72926;SDS011;61071;51.618;19.388;2023-05-21T07:11:16;3.45;;;2.10;;
72926;SDS011;61071;51.618;19.388;2023-05-21T07:13:41;3.60;;;1.80;;
72926;SDS011;61071;51.618;19.388;2023-05-21T07:16:07;2.67;;;1.77;;
72926;SDS011;61071;51.618;19.388;2023-05-21T07:18:32;9.52;;;2.10;;
72926;SDS011;61071;51.618;19.388;2023-05-21T07:20:58;5.88;;;2.10;;
72926;SDS011;61071;51.618;19.388;2023-05-21T07:23:23;3.90;;;2.40;;
72926;SDS011;61071;51.618;19.388;2023-05-21T07:25:48;7.63;;;2.05;;
72926;SDS011;61071;51.618;19.388;2023-05-21T07:28:14;3.75;;;1.95;;
72926;SDS011;61071;51.618;19.388;2023-05-21T07:30:39;10.48;;;2.00;;
72926;SDS011;61071;51.618;19.388;2023-05-21T07:33:05;7.38;;;2.33;;
72926;SDS011;61071;51.618;19.388;2023-05-21T07:35:30;5.35;;;1.85;;
72926;SDS011;61071;51.618;19.388;2023-05-21T07:37:55;4.88;;;1.95;;
72926;SDS011;61071;51.618;19.388;2023-05-21T07:40:21;3.60;;;1.70;;
72926;SDS011;61071;51.618;19.388;2023-05-21T07:42:46;3.58;;;2.20;;
72926;SDS011;61071;51.618;19.388;2023-05-21T07:45:12;3.53;;;2.10;;
72926;SDS011;61071;51.618;19.388;2023-05-21T07:47:37;5.38;;;2.17;;
72926;SDS011;61071;51.618;19.388;2023-05-21T07:50:03;5.00;;;2.00;;
72926;SDS011;61071;51.618;19.388;2023-05-21T07:52:29;3.92;;;1.90;;
72926;SDS011;61071;51.618;19.388;2023-05-21T07:54:54;6.00;;;2.17;;
72926;SDS011;61071;51.618;19.388;2023-05-21T07:57:20;5.72;;;2.17;;
72926;SDS011;61071;51.618;19.388;2023-05-21T07:59:45;4.55;;;1.88;;
72926;SDS011;61071;51.618;19.388;2023-05-21T08:02:11;4.00;;;2.30;;
72926;SDS011;61071;51.618;19.388;2023-05-21T08:04:36;4.88;;;1.77;;
72926;SDS011;61071;51.618;19.388;2023-05-21T08:07:02;3.78;;;1.48;;
72926;SDS011;61071;51.618;19.388;2023-05-21T08:09:27;7.55;;;2.13;;
72926;SDS011;61071;51.618;19.388;2023-05-21T08:11:53;4.30;;;1.88;;
72926;SDS011;61071;51.618;19.388;2023-05-21T08:14:18;2.80;;;1.77;;
72926;SDS011;61071;51.618;19.388;2023-05-21T08:16:44;4.95;;;1.40;;
72926;SDS011;61071;51.618;19.388;2023-05-21T08:19:10;3.63;;;1.85;;
72926;SDS011;61071;51.618;19.388;2023-05-21T08:21:36;5.68;;;1.90;;
72926;SDS011;61071;51.618;19.388;2023-05-21T08:24:01;6.97;;;1.60;;
72926;SDS011;61071;51.618;19.388;2023-05-21T08:26:27;6.78;;;1.70;;
72926;SDS011;61071;51.618;19.388;2023-05-21T08:28:52;8.77;;;1.60;;
72926;SDS011;61071;51.618;19.388;2023-05-21T08:31:18;4.13;;;1.90;;
72926;SDS011;61071;51.618;19.388;2023-05-21T08:33:49;5.20;;;1.50;;
72926;SDS011;61071;51.618;19.388;2023-05-21T08:36:16;1.70;;;1.23;;
72926;SDS011;61071;51.618;19.388;2023-05-21T08:38:42;5.25;;;1.70;;
72926;SDS011;61071;51.618;19.388;2023-05-21T08:41:09;9.57;;;1.77;;
72926;SDS011;61071;51.618;19.388;2023-05-21T08:43:36;4.30;;;1.55;;
72926;SDS011;61071;51.618;19.388;2023-05-21T08:46:03;3.15;;;1.65;;
72926;SDS011;61071;51.618;19.388;2023-05-21T08:48:30;2.30;;;1.67;;
72926;SDS011;61071;51.618;19.388;2023-05-21T08:50:57;5.07;;;1.40;;
72926;SDS011;61071;51.618;19.388;2023-05-21T08:53:25;2.25;;;1.45;;
72926;SDS011;61071;51.618;19.388;2023-05-21T08:55:53;2.60;;;1.35;;
72926;SDS011;61071;51.618;19.388;2023-05-21T08:58:21;8.75;;;2.08;;
72926;SDS011;61071;51.618;19.388;2023-05-21T09:00:46;2.92;;;1.50;;
72926;SDS011;61071;51.618;19.388;2023-05-21T09:03:13;3.15;;;1.65;;
72926;SDS011;61071;51.618;19.388;2023-05-21T09:05:40;5.35;;;1.98;;
72926;SDS011;61071;51.618;19.388;2023-05-21T09:10:59;4.28;;;1.55;;
72926;SDS011;61071;51.618;19.388;2023-05-21T09:13:27;6.45;;;2.05;;
72926;SDS011;61071;51.618;19.388;2023-05-21T09:15:56;5.47;;;1.60;;
72926;SDS011;61071;51.618;19.388;2023-05-21T09:18:22;3.08;;;1.50;;
72926;SDS011;61071;51.618;19.388;2023-05-21T09:20:48;5.40;;;1.40;;
72926;SDS011;61071;51.618;19.388;2023-05-21T09:23:15;9.52;;;1.42;;
72926;SDS011;61071;51.618;19.388;2023-05-21T09:25:48;2.55;;;1.40;;
72926;SDS011;61071;51.618;19.388;2023-05-21T09:28:16;4.60;;;1.35;;
72926;SDS011;61071;51.618;19.388;2023-05-21T09:30:44;6.30;;;1.48;;
72926;SDS011;61071;51.618;19.388;2023-05-21T09:33:24;2.40;;;1.60;;
72926;SDS011;61071;51.618;19.388;2023-05-21T09:35:53;3.80;;;1.67;;
72926;SDS011;61071;51.618;19.388;2023-05-21T09:38:20;6.65;;;1.52;;
72926;SDS011;61071;51.618;19.388;2023-05-21T09:40:47;7.18;;;1.40;;
72926;SDS011;61071;51.618;19.388;2023-05-21T09:43:13;13.38;;;1.70;;
72926;SDS011;61071;51.618;19.388;2023-05-21T09:45:51;3.88;;;1.55;;
72926;SDS011;61071;51.618;19.388;2023-05-21T09:48:33;7.65;;;1.60;;
72926;SDS011;61071;51.618;19.388;2023-05-21T09:51:15;5.55;;;1.30;;
72926;SDS011;61071;51.618;19.388;2023-05-21T09:54:03;4.15;;;1.52;;
72926;SDS011;61071;51.618;19.388;2023-05-21T09:56:28;9.57;;;1.58;;
72926;SDS011;61071;51.618;19.388;2023-05-21T09:58:56;4.38;;;1.83;;
72926;SDS011;61071;51.618;19.388;2023-05-21T10:01:25;10.05;;;2.05;;
72926;SDS011;61071;51.618;19.388;2023-05-21T10:03:53;1.90;;;1.42;;
72926;SDS011;61071;51.618;19.388;2023-05-21T10:06:27;4.30;;;1.40;;
72926;SDS011;61071;51.618;19.388;2023-05-21T10:08:56;4.32;;;1.50;;
72926;SDS011;61071;51.618;19.388;2023-05-21T10:11:26;5.85;;;2.17;;
72926;SDS011;61071;51.618;19.388;2023-05-21T10:14:08;8.30;;;4.13;;
72926;SDS011;61071;51.618;19.388;2023-05-21T10:16:40;6.90;;;1.60;;
72926;SDS011;61071;51.618;19.388;2023-05-21T10:19:06;10.57;;;3.83;;
72926;SDS011;61071;51.618;19.388;2023-05-21T10:21:36;11.50;;;5.68;;
72926;SDS011;61071;51.618;19.388;2023-05-21T10:24:03;1.95;;;1.80;;
72926;SDS011;61071;51.618;19.388;2023-05-21T10:26:31;2.88;;;1.70;;
72926;SDS011;61071;51.618;19.388;2023-05-21T10:28:57;2.40;;;1.50;;
72926;SDS011;61071;51.618;19.388;2023-05-21T10:31:24;12.60;;;2.10;;
72926;SDS011;61071;51.618;19.388;2023-05-21T10:33:52;4.55;;;1.52;;
72926;SDS011;61071;51.618;19.388;2023-05-21T10:36:19;9.48;;;3.05;;
72926;SDS011;61071;51.618;19.388;2023-05-21T10:38:46;7.25;;;2.60;;
72926;SDS011;61071;51.618;19.388;2023-05-21T10:41:12;1.75;;;1.50;;
72926;SDS011;61071;51.618;19.388;2023-05-21T10:46:20;6.28;;;2.78;;
72926;SDS011;61071;51.618;19.388;2023-05-21T10:52:18;5.68;;;1.92;;
72926;SDS011;61071;51.618;19.388;2023-05-21T11:01:00;4.65;;;2.10;;
72926;SDS011;61071;51.618;19.388;2023-05-21T11:03:27;6.20;;;2.47;;
72926;SDS011;61071;51.618;19.388;2023-05-21T11:05:55;5.68;;;1.90;;
72926;SDS011;61071;51.618;19.388;2023-05-21T11:08:28;5.88;;;2.45;;
72926;SDS011;61071;51.618;19.388;2023-05-21T11:10:57;4.38;;;2.00;;
72926;SDS011;61071;51.618;19.388;2023-05-21T11:13:23;6.35;;;1.55;;
72926;SDS011;61071;51.618;19.388;2023-05-21T11:16:12;3.05;;;1.40;;
72926;SDS011;61071;51.618;19.388;2023-05-21T11:21:05;2.83;;;1.30;;
72926;SDS011;61071;51.618;19.388;2023-05-21T11:26:15;2.25;;;1.40;;
72926;SDS011;61071;51.618;19.388;2023-05-21T11:28:41;2.78;;;1.33;;
72926;SDS011;61071;51.618;19.388;2023-05-21T11:31:25;4.20;;;1.80;;
72926;SDS011;61071;51.618;19.388;2023-05-21T11:34:07;2.63;;;1.17;;
72926;SDS011;61071;51.618;19.388;2023-05-21T11:36:43;3.95;;;1.40;;
72926;SDS011;61071;51.618;19.388;2023-05-21T11:39:18;7.35;;;1.90;;
72926;SDS011;61071;51.618;19.388;2023-05-21T11:41:58;2.08;;;1.60;;
72926;SDS011;61071;51.618;19.388;2023-05-21T11:44:45;2.38;;;1.63;;
72926;SDS011;61071;51.618;19.388;2023-05-21T11:47:12;2.45;;;1.73;;
72926;SDS011;61071;51.618;19.388;2023-05-21T11:49:39;3.15;;;1.60;;
72926;SDS011;61071;51.618;19.388;2023-05-21T11:52:07;3.40;;;1.80;;
72926;SDS011;61071;51.618;19.388;2023-05-21T11:54:44;4.18;;;1.35;;
72926;SDS011;61071;51.618;19.388;2023-05-21T11:57:17;5.20;;;1.70;;
72926;SDS011;61071;51.618;19.388;2023-05-21T11:59:46;5.97;;;1.88;;
72926;SDS011;61071;51.618;19.388;2023-05-21T12:02:15;3.35;;;1.48;;
72926;SDS011;61071;51.618;19.388;2023-05-21T12:04:44;3.70;;;1.90;;
72926;SDS011;61071;51.618;19.388;2023-05-21T12:07:15;3.70;;;1.50;;
72926;SDS011;61071;51.618;19.388;2023-05-21T12:09:43;3.40;;;1.80;;
72926;SDS011;61071;51.618;19.388;2023-05-21T12:12:12;6.47;;;1.73;;
72926;SDS011;61071;51.618;19.388;2023-05-21T12:14:44;3.67;;;1.60;;
72926;SDS011;61071;51.618;19.388;2023-05-21T12:17:14;2.97;;;1.73;;
72926;SDS011;61071;51.618;19.388;2023-05-21T12:19:42;2.55;;;1.60;;
72926;SDS011;61071;51.618;19.388;2023-05-21T12:22:09;3.72;;;1.50;;
72926;SDS011;61071;51.618;19.388;2023-05-21T12:24:35;2.75;;;1.50;;
72926;SDS011;61071;51.618;19.388;2023-05-21T12:27:02;2.33;;;1.45;;
72926;SDS011;61071;51.618;19.388;2023-05-21T12:29:38;4.50;;;1.67;;
72926;SDS011;61071;51.618;19.388;2023-05-21T12:32:07;2.47;;;1.65;;
72926;SDS011;61071;51.618;19.388;2023-05-21T12:37:10;2.05;;;1.50;;
72926;SDS011;61071;51.618;19.388;2023-05-21T12:39:47;4.28;;;1.58;;
72926;SDS011;61071;51.618;19.388;2023-05-21T12:42:15;7.85;;;1.60;;
72926;SDS011;61071;51.618;19.388;2023-05-21T12:44:44;2.72;;;1.63;;
72926;SDS011;61071;51.618;19.388;2023-05-21T12:47:11;2.83;;;1.67;;
72926;SDS011;61071;51.618;19.388;2023-05-21T12:49:41;2.80;;;1.60;;
72926;SDS011;61071;51.618;19.388;2023-05-21T12:52:14;3.55;;;1.50;;
72926;SDS011;61071;51.618;19.388;2023-05-21T12:54:47;1.77;;;1.48;;
72926;SDS011;61071;51.618;19.388;2023-05-21T13:00:03;3.60;;;1.60;;
72926;SDS011;61071;51.618;19.388;2023-05-21T13:02:36;2.85;;;1.50;;
72926;SDS011;61071;51.618;19.388;2023-05-21T13:05:05;2.13;;;1.50;;
72926;SDS011;61071;51.618;19.388;2023-05-21T13:07:40;4.13;;;1.63;;
72926;SDS011;61071;51.618;19.388;2023-05-21T13:10:07;4.78;;;1.63;;
72926;SDS011;61071;51.618;19.388;2023-05-21T13:12:34;2.92;;;1.75;;
72926;SDS011;61071;51.618;19.388;2023-05-21T13:15:00;5.10;;;1.50;;
72926;SDS011;61071;51.618;19.388;2023-05-21T13:17:28;3.70;;;1.80;;
72926;SDS011;61071;51.618;19.388;2023-05-21T13:20:10;3.58;;;1.58;;
72926;SDS011;61071;51.618;19.388;2023-05-21T13:22:41;5.50;;;1.88;;
72926;SDS011;61071;51.618;19.388;2023-05-21T13:25:12;4.40;;;1.88;;
72926;SDS011;61071;51.618;19.388;2023-05-21T13:27:44;2.88;;;1.65;;
72926;SDS011;61071;51.618;19.388;2023-05-21T13:30:10;4.80;;;1.55;;
72926;SDS011;61071;51.618;19.388;2023-05-21T13:32:36;8.90;;;1.65;;
72926;SDS011;61071;51.618;19.388;2023-05-21T13:35:03;4.88;;;1.70;;
72926;SDS011;61071;51.618;19.388;2023-05-21T13:37:29;5.18;;;1.70;;
72926;SDS011;61071;51.618;19.388;2023-05-21T13:39:54;2.72;;;1.38;;
72926;SDS011;61071;51.618;19.388;2023-05-21T13:42:20;3.65;;;1.35;;
72926;SDS011;61071;51.618;19.388;2023-05-21T13:44:46;10.10;;;1.80;;
72926;SDS011;61071;51.618;19.388;2023-05-21T13:47:12;5.93;;;1.40;;
72926;SDS011;61071;51.618;19.388;2023-05-21T13:49:38;13.98;;;1.67;;
72926;SDS011;61071;51.618;19.388;2023-05-21T13:52:04;4.55;;;1.60;;
72926;SDS011;61071;51.618;19.388;2023-05-21T13:54:31;6.78;;;1.50;;
72926;SDS011;61071;51.618;19.388;2023-05-21T13:56:57;6.90;;;1.65;;
72926;SDS011;61071;51.618;19.388;2023-05-21T13:59:22;5.43;;;1.85;;
72926;SDS011;61071;51.618;19.388;2023-05-21T14:01:48;2.08;;;1.50;;
72926;SDS011;61071;51.618;19.388;2023-05-21T14:04:14;1.92;;;1.42;;
72926;SDS011;61071;51.618;19.388;2023-05-21T14:06:41;3.67;;;1.52;;
72926;SDS011;61071;51.618;19.388;2023-05-21T14:09:07;2.15;;;1.48;;
72926;SDS011;61071;51.618;19.388;2023-05-21T14:11:32;3.83;;;1.73;;
72926;SDS011;61071;51.618;19.388;2023-05-21T14:13:59;2.47;;;1.48;;
72926;SDS011;61071;51.618;19.388;2023-05-21T14:16:25;1.60;;;1.33;;
72926;SDS011;61071;51.618;19.388;2023-05-21T14:18:54;2.75;;;1.42;;
72926;SDS011;61071;51.618;19.388;2023-05-21T14:21:22;6.00;;;1.90;;
72926;SDS011;61071;51.618;19.388;2023-05-21T14:23:48;4.43;;;1.80;;
72926;SDS011;61071;51.618;19.388;2023-05-21T14:26:14;7.57;;;1.67;;
72926;SDS011;61071;51.618;19.388;2023-05-21T14:28:41;2.35;;;1.23;;
72926;SDS011;61071;51.618;19.388;2023-05-21T14:31:07;5.82;;;1.60;;
72926;SDS011;61071;51.618;19.388;2023-05-21T14:33:34;5.38;;;1.60;;
72926;SDS011;61071;51.618;19.388;2023-05-21T14:36:01;5.72;;;2.10;;
72926;SDS011;61071;51.618;19.388;2023-05-21T14:38:28;5.60;;;1.58;;
72926;SDS011;61071;51.618;19.388;2023-05-21T14:40:53;4.53;;;2.42;;
72926;SDS011;61071;51.618;19.388;2023-05-21T14:43:19;9.13;;;1.83;;
72926;SDS011;61071;51.618;19.388;2023-05-21T14:45:45;2.92;;;1.60;;
72926;SDS011;61071;51.618;19.388;2023-05-21T14:48:10;1.67;;;1.45;;
72926;SDS011;61071;51.618;19.388;2023-05-21T14:50:36;1.98;;;1.40;;
72926;SDS011;61071;51.618;19.388;2023-05-21T14:53:06;3.65;;;1.60;;
72926;SDS011;61071;51.618;19.388;2023-05-21T14:55:34;2.75;;;1.58;;
72926;SDS011;61071;51.618;19.388;2023-05-21T14:58:00;2.90;;;1.70;;
72926;SDS011;61071;51.618;19.388;2023-05-21T15:00:27;13.05;;;1.98;;